createdAt,value
2018-07-26T02:58:00.551Z,22.96
2018-07-26T02:58:43.325Z,22.99
2018-07-26T02:59:24.695Z,22.99
2018-07-26T03:52:26.635Z,22.57
2018-07-26T03:53:06.634Z,22.6
2018-07-26T03:53:46.984Z,22.57
2018-07-26T03:54:27.377Z,22.54
2018-07-26T03:55:07.908Z,22.49
2018-07-26T03:55:48.356Z,22.57
2018-07-26T03:56:28.774Z,22.56
2018-07-26T03:57:09.282Z,22.51
2018-07-26T03:57:49.641Z,22.57
2018-07-26T03:58:30.078Z,22.54
2018-07-26T03:59:11.381Z,22.48
2018-07-26T03:59:52.365Z,22.39
2018-07-26T04:00:32.557Z,22.49
2018-07-26T04:01:12.877Z,22.42
2018-07-26T04:01:53.339Z,22.42
2018-07-26T04:02:33.823Z,22.44
2018-07-26T04:42:23.105Z,21.99
2018-07-26T04:43:24.973Z,21.96
2018-07-26T04:44:31.278Z,21.99
2018-07-26T04:45:32.251Z,21.9
2018-07-26T04:46:37.455Z,21.86
2018-07-26T04:47:37.124Z,21.9
2018-07-26T04:48:38.462Z,21.91
2018-07-26T04:49:42.099Z,21.9
2018-07-26T04:50:41.444Z,21.94
2018-07-26T04:51:43.540Z,21.99
2018-07-26T04:52:56.308Z,22.02
2018-07-26T04:55:20.482Z,22.06
2018-07-26T04:58:11.154Z,22.09
2018-07-26T05:01:21.096Z,22.2
2018-07-26T05:03:43.360Z,22.3
2018-07-26T05:05:52.262Z,22.3
2018-07-26T05:07:02.535Z,22.38
2018-07-26T05:08:12.106Z,22.35
2018-07-26T05:08:51.806Z,22.44
2018-07-26T05:09:32.252Z,22.49
2018-07-26T05:11:25.366Z,22.57
2018-07-26T05:13:54.046Z,22.96
2018-07-26T05:14:55.161Z,23.06
2018-07-26T05:15:57.842Z,23.32
2018-07-26T05:16:57.022Z,23.67
2018-07-26T05:18:41.495Z,24.05
2018-07-26T05:19:39.724Z,24.36
2018-07-26T05:22:10.293Z,25.11
2018-07-26T05:24:15.515Z,25.54
2018-07-26T05:25:17.323Z,25.81
2018-07-26T05:25:57.394Z,25.93
2018-07-26T05:26:37.797Z,26.12
2018-07-26T05:27:18.222Z,26.29
2018-07-26T05:27:58.729Z,26.44
2018-07-26T05:29:50.016Z,26.65
2018-07-26T05:33:02.544Z,27.23
2018-07-26T05:33:48.027Z,27.34
2018-07-26T05:34:28.413Z,27.48
2018-07-26T05:35:08.805Z,27.52
2018-07-26T05:35:49.247Z,27.52
2018-07-26T05:36:29.648Z,27.52
2018-07-26T05:39:26.945Z,27.49
2018-07-26T05:40:06.423Z,27.65
2018-07-26T05:44:41.530Z,27.9
2018-07-26T05:45:23.083Z,27.91
2018-07-26T05:46:03.541Z,28.06
2018-07-26T05:46:44.553Z,28.03
2018-07-26T05:47:26.304Z,28.28
2018-07-26T05:48:08.713Z,28.32
2018-07-26T05:48:50.017Z,28.4
2018-07-26T05:49:30.461Z,28.46
2018-07-26T05:50:10.887Z,28.54
2018-07-26T05:50:51.884Z,28.62
2018-07-26T05:51:31.784Z,28.77
2018-07-26T05:52:14.016Z,28.77
2018-07-26T05:52:54.777Z,28.97
2018-07-26T05:53:36.243Z,29.17
2018-07-26T05:54:16.812Z,29.27
2018-07-26T05:54:57.358Z,29.39
2018-07-26T05:55:38.131Z,29.49
2018-07-26T05:56:21.494Z,29.69
2018-07-26T05:57:14.822Z,29.74
2018-07-26T05:57:57.548Z,29.79
2018-07-26T05:58:38.762Z,29.94
2018-07-26T05:59:19.532Z,30.1
2018-07-26T06:00:02.787Z,30.19
2018-07-26T06:00:43.443Z,30.18
2018-07-26T06:01:24.340Z,30.15
2018-07-26T06:02:04.954Z,30.25
2018-07-26T06:02:48.146Z,30.36
2018-07-26T06:03:28.552Z,30.3
2018-07-26T06:09:02.346Z,30.66
2018-07-26T06:09:42.449Z,30.63
2018-07-26T06:10:22.836Z,30.76
2018-07-26T06:11:03.830Z,30.63
2018-07-26T06:11:43.720Z,30.64
2018-07-26T06:12:27.303Z,30.81
2018-07-26T06:13:11.671Z,30.91
2018-07-26T06:13:54.372Z,31.03
2018-07-26T06:14:35.148Z,31.04
2018-07-26T06:15:15.367Z,31.07
2018-07-26T06:15:57.041Z,31.07
2018-07-26T06:16:38.707Z,31.09
2018-07-26T06:17:19.333Z,31.13
2018-07-26T06:18:00.528Z,31.12
2018-07-26T06:18:41.049Z,31.1
2018-07-26T06:19:21.548Z,31.2
2018-07-26T06:20:02.052Z,31.3
2018-07-26T06:20:42.523Z,31.4
2018-07-26T06:21:23.106Z,31.47
2018-07-26T06:22:03.424Z,31.56
2018-07-26T06:31:39.639Z,32.31
2018-07-26T06:35:08.259Z,32.5
2018-07-26T06:37:10.407Z,32.83
2018-07-26T06:37:50.687Z,32.85
2018-07-26T06:38:31.170Z,32.81
2018-07-26T06:39:11.649Z,32.72
2018-07-26T06:39:52.170Z,32.61
2018-07-26T06:40:32.775Z,32.53
2018-07-26T06:41:14.364Z,32.41
2018-07-26T06:41:54.107Z,32.27
2018-07-26T06:42:34.705Z,32.13
2018-07-26T06:43:15.175Z,32.05
2018-07-26T06:45:07.257Z,32.09
2018-07-26T06:45:48.370Z,32.1
2018-07-26T06:46:30.031Z,32.05
2018-07-26T06:47:11.069Z,32.05
2018-07-26T06:47:51.875Z,31.95
2018-07-26T06:48:35.056Z,31.9
2018-07-26T06:49:21.414Z,31.9
2018-07-26T06:50:01.966Z,31.9
2018-07-26T06:50:42.434Z,31.82
2018-07-26T06:51:23.490Z,31.91
2018-07-26T06:52:04.002Z,31.85
2018-07-26T06:52:46.302Z,31.87
2018-07-26T06:53:26.735Z,31.9
2018-07-26T06:54:07.214Z,31.85
2018-07-26T06:54:47.704Z,31.91
2018-07-26T06:55:28.385Z,31.88
2018-07-26T06:56:09.754Z,31.74
2018-07-26T06:56:55.466Z,31.79
2018-07-26T06:57:41.250Z,31.68
2018-07-26T06:58:20.814Z,31.71
2018-07-26T06:59:01.465Z,31.64
2018-07-26T06:59:42.568Z,31.71
2018-07-26T07:00:26.637Z,31.68
2018-07-26T07:01:05.487Z,31.68
2018-07-26T07:01:47.597Z,31.74
2018-07-26T07:02:28.742Z,31.78
2018-07-26T07:03:10.518Z,31.64
2018-07-26T07:03:52.335Z,31.79
2018-07-26T07:05:31.590Z,31.82
2018-07-26T07:06:19.825Z,31.95
2018-07-26T07:07:03.519Z,31.92
2018-07-26T07:09:00.873Z,32.31
2018-07-26T07:09:40.795Z,32.36
2018-07-26T07:10:21.305Z,32.46
2018-07-26T07:11:01.736Z,32.43
2018-07-26T07:11:42.173Z,32.43
2018-07-26T07:12:22.652Z,32.39
2018-07-26T07:13:03.092Z,32.34
2018-07-26T07:13:43.567Z,32.43
2018-07-26T07:14:25.081Z,32.4
2018-07-26T07:15:05.501Z,32.32
2018-07-26T07:15:46.673Z,32.41
2018-07-26T07:16:26.298Z,32.53
2018-07-26T07:17:07.122Z,32.47
2018-07-26T07:17:49.391Z,32.71
2018-07-26T07:18:29.737Z,32.8
2018-07-26T07:19:10.293Z,32.77
2018-07-26T07:19:50.803Z,32.81
2018-07-26T07:20:31.208Z,32.77
2018-07-26T07:21:11.764Z,32.73
2018-07-26T07:21:52.998Z,32.76
2018-07-26T07:22:34.124Z,32.8
2018-07-26T07:23:14.563Z,32.87
2018-07-26T07:23:54.967Z,32.88
2018-07-26T07:24:35.422Z,32.9
2018-07-26T07:25:15.935Z,32.95
2018-07-26T07:25:56.605Z,32.88
2018-07-26T07:26:37.055Z,32.85
2018-07-26T07:27:17.684Z,32.81
2018-07-26T07:27:58.049Z,32.84
2018-07-26T07:28:38.706Z,32.88
2018-07-26T07:29:19.149Z,32.9
2018-07-26T07:29:59.567Z,32.91
2018-07-26T07:30:40.967Z,32.95
2018-07-26T07:31:21.419Z,32.99
2018-07-26T07:32:01.859Z,32.99
2018-07-26T07:32:43.231Z,32.93
2018-07-26T07:33:24.809Z,32.99
2018-07-26T07:34:04.526Z,33.02
2018-07-26T07:34:45.028Z,33.05
2018-07-26T07:35:25.903Z,33.09
2018-07-26T07:36:08.218Z,33.11
2018-07-26T07:36:49.843Z,33.14
2018-07-26T07:37:30.548Z,33.33
2018-07-26T07:38:11.954Z,33.44
2018-07-26T07:38:53.189Z,33.5
2018-07-26T07:39:33.172Z,33.45
2018-07-26T07:40:13.696Z,33.59
2018-07-26T07:40:54.544Z,33.62
2018-07-26T07:41:35.291Z,33.59
2018-07-26T07:42:15.854Z,33.77
2018-07-26T07:42:56.540Z,33.77
2018-07-26T07:43:37.027Z,33.79
2018-07-26T07:44:17.533Z,33.96
2018-07-26T07:44:58.275Z,33.97
2018-07-26T07:45:38.880Z,33.99
2018-07-26T07:46:20.874Z,34.06
2018-07-26T07:47:01.148Z,34.09
2018-07-26T07:47:42.790Z,34.12
2018-07-26T07:48:23.291Z,34.05
2018-07-26T07:49:04.315Z,34.03
2018-07-26T07:49:45.427Z,34.05
2018-07-26T07:50:26.731Z,34.08
2018-07-26T07:56:18.106Z,34.5
2018-07-26T07:56:58.548Z,34.6
2018-07-26T07:57:39.416Z,34.61
2018-07-26T07:58:21.470Z,34.69
2018-07-26T07:59:01.933Z,34.71
2018-07-26T07:59:42.380Z,34.73
2018-07-26T08:00:22.738Z,34.83
2018-07-26T08:01:03.285Z,34.84
2018-07-26T08:01:44.433Z,34.87
2018-07-26T08:02:25.497Z,34.95
2018-07-26T08:03:05.789Z,35.1
2018-07-26T08:03:46.761Z,35.13
2018-07-26T08:04:27.672Z,35.2
2018-07-26T08:05:08.647Z,35.09
2018-07-26T08:05:49.543Z,35.07
2018-07-26T08:06:30.285Z,34.83
2018-07-26T08:07:11.305Z,34.8
2018-07-26T08:07:51.963Z,34.64
2018-07-26T08:08:33.361Z,34.63
2018-07-26T08:09:14.891Z,34.53
2018-07-26T08:09:54.737Z,34.6
2018-07-26T08:10:35.510Z,34.65
2018-07-26T08:11:17.476Z,34.63
2018-07-26T08:11:57.271Z,34.64
2018-07-26T08:12:37.990Z,34.64
2018-07-26T08:13:19.363Z,34.69
2018-07-26T08:13:59.225Z,34.8
2018-07-26T08:14:40.921Z,34.8
2018-07-26T08:15:20.686Z,34.93
2018-07-26T08:16:01.461Z,34.98
2018-07-26T08:16:42.578Z,35.17
2018-07-26T08:17:23.550Z,35.22
2018-07-26T08:18:05.378Z,35.27
2018-07-26T08:18:46.046Z,35.32
2018-07-26T08:19:26.313Z,35.43
2018-07-26T08:20:07.876Z,35.29
2018-07-26T08:20:48.594Z,35.37
2018-07-26T08:21:30.151Z,35.36
2018-07-26T08:22:10.751Z,35.34
2018-07-26T08:22:51.408Z,35.36
2018-07-26T08:23:32.851Z,35.32
2018-07-26T08:24:13.980Z,35.27
2018-07-26T08:24:54.516Z,35.32
2018-07-26T08:25:35.346Z,35.21
2018-07-26T08:26:17.478Z,35.27
2018-07-26T08:26:59.783Z,35.31
2018-07-26T08:27:40.716Z,35.43
2018-07-26T08:28:21.738Z,35.52
2018-07-26T08:29:02.293Z,35.61
2018-07-26T08:29:43.248Z,35.74
2018-07-26T08:30:25.388Z,35.81
2018-07-26T08:31:05.355Z,35.78
2018-07-26T08:31:45.878Z,35.68
2018-07-26T08:32:27.902Z,35.78
2018-07-26T08:33:08.093Z,35.66
2018-07-26T08:33:49.388Z,35.62
2018-07-26T08:34:29.578Z,35.65
2018-07-26T08:35:10.508Z,35.71
2018-07-26T08:35:52.388Z,35.76
2018-07-26T08:36:32.435Z,35.85
2018-07-26T08:37:13.381Z,35.87
2018-07-26T08:37:53.853Z,35.89
2018-07-26T08:38:34.582Z,35.89
2018-07-26T08:39:15.332Z,35.98
2018-07-26T08:39:56.038Z,36.02
2018-07-26T08:40:36.463Z,36.03
2018-07-26T08:41:17.463Z,36.05
2018-07-26T08:41:59.415Z,36.03
2018-07-26T08:42:39.711Z,36
2018-07-26T08:43:21.411Z,36.02
2018-07-26T08:44:02.243Z,35.96
2018-07-26T08:44:43.903Z,36
2018-07-26T08:45:24.235Z,36.03
2018-07-26T08:46:04.650Z,36.03
2018-07-26T08:46:46.580Z,36.02
2018-07-26T08:47:27.053Z,36.03
2018-07-26T08:48:07.727Z,36.16
2018-07-26T08:48:48.934Z,36.13
2018-07-26T08:49:29.122Z,36.23
2018-07-26T08:50:11.932Z,36.02
2018-07-26T08:50:51.881Z,36.03
2018-07-26T08:51:34.102Z,35.92
2018-07-26T08:52:14.951Z,35.91
2018-07-26T08:52:55.947Z,36.03
2018-07-26T08:53:36.743Z,36.16
2018-07-26T08:54:36.023Z,36.55
2018-07-26T08:55:16.643Z,36.64
2018-07-26T08:55:59.909Z,36.86
2018-07-26T08:56:40.384Z,36.93
2018-07-26T08:57:22.040Z,36.9
2018-07-26T08:58:02.661Z,37.01
2018-07-26T08:58:44.649Z,36.93
2018-07-26T08:59:25.273Z,36.94
2018-07-26T09:00:05.782Z,36.96
2018-07-26T09:00:47.574Z,36.94
2018-07-26T09:01:28.430Z,37.04
2018-07-26T09:02:10.811Z,37.3
2018-07-26T09:02:52.918Z,37.5
2018-07-26T09:03:33.031Z,37.69
2018-07-26T09:04:13.999Z,37.8
2018-07-26T09:04:55.773Z,37.84
2018-07-26T09:05:36.196Z,37.78
2018-07-26T09:06:16.962Z,37.78
2018-07-26T09:06:57.757Z,37.9
2018-07-26T09:07:39.403Z,38
2018-07-26T09:08:19.543Z,37.99
2018-07-26T09:09:00.563Z,37.97
2018-07-26T09:09:41.257Z,38.02
2018-07-26T09:10:22.557Z,37.91
2018-07-26T09:11:03.004Z,38
2018-07-26T09:11:43.036Z,38.02
2018-07-26T09:12:24.598Z,38
2018-07-26T09:13:04.984Z,38.06
2018-07-26T09:13:46.179Z,38.19
2018-07-26T09:14:26.930Z,38.3
2018-07-26T09:15:07.599Z,38.36
2018-07-26T09:15:48.663Z,38.38
2018-07-26T09:16:29.916Z,38.4
2018-07-26T09:17:10.575Z,38.44
2018-07-26T09:17:52.154Z,38.43
2018-07-26T09:18:33.513Z,38.36
2018-07-26T09:19:14.924Z,38.38
2018-07-26T09:19:55.405Z,38.26
2018-07-26T09:20:36.153Z,38.24
2018-07-26T09:21:16.634Z,38.34
2018-07-26T09:21:57.268Z,38.33
2018-07-26T09:22:38.887Z,38.38
2018-07-26T09:23:20.429Z,38.34
2018-07-26T09:24:00.484Z,38.41
2018-07-26T09:24:41.718Z,38.6
2018-07-26T09:25:26.470Z,38.58
2018-07-26T09:26:07.207Z,38.6
2018-07-26T09:26:48.799Z,38.68
2018-07-26T09:31:48.686Z,39.01
2018-07-26T09:32:29.734Z,38.98
2018-07-26T09:33:10.232Z,38.97
2018-07-26T09:33:51.792Z,39.06
2018-07-26T09:34:32.648Z,38.93
2018-07-26T09:35:14.490Z,38.79
2018-07-26T09:35:55.718Z,38.75
2018-07-26T09:36:36.859Z,38.59
2018-07-26T09:38:06.178Z,38.63
2018-07-26T09:38:53.040Z,39
2018-07-26T09:39:33.554Z,39.1
2018-07-26T09:40:14.428Z,39.27
2018-07-26T09:40:54.843Z,39.35
2018-07-26T09:41:35.455Z,39.43
2018-07-26T09:42:16.167Z,39.65
2018-07-26T09:42:57.351Z,39.68
2018-07-26T09:43:40.417Z,39.82
2018-07-26T09:44:20.554Z,39.9
2018-07-26T09:45:02.614Z,40.04
2018-07-26T09:45:42.774Z,40.1
2018-07-26T09:46:25.182Z,40.21
2018-07-26T09:47:51.004Z,40.38
2018-07-26T09:55:11.454Z,40.46
2018-07-26T09:55:54.159Z,40.6
2018-07-26T09:56:36.073Z,40.67
2018-07-26T09:57:18.903Z,40.66
2018-07-26T09:57:57.017Z,40.46
2018-07-26T09:58:37.912Z,40.41
2018-07-26T09:59:18.044Z,40.48
2018-07-26T10:00:00.720Z,40.51
2018-07-26T10:00:40.702Z,40.36
2018-07-26T10:01:22.037Z,40.13
2018-07-26T10:02:03.282Z,40
2018-07-26T10:02:44.687Z,39.84
2018-07-26T10:03:25.651Z,39.78
2018-07-26T10:04:06.306Z,39.82
2018-07-26T10:04:47.051Z,39.81
2018-07-26T10:42:40.993Z,41.1
2018-07-26T10:43:26.915Z,40.86
2018-07-26T10:44:07.382Z,40.67
2018-07-26T10:44:47.742Z,40.57
2018-07-26T10:45:28.283Z,40.48
2018-07-26T10:46:09.507Z,40.41
2018-07-26T10:46:49.807Z,40.41
2018-07-26T10:47:30.446Z,40.58
2018-07-26T10:48:12.260Z,40.73
2018-07-26T10:48:53.504Z,40.68
2018-07-26T10:49:34.251Z,40.67
2018-07-26T10:50:14.798Z,40.9
2018-07-26T10:50:56.357Z,41.07
2018-07-26T10:51:36.983Z,41.13
2018-07-26T10:53:36.472Z,41.01
2018-07-26T10:55:54.175Z,40.91
2018-07-26T10:56:35.374Z,40.97
2018-07-26T10:57:27.077Z,41.05
2018-07-26T10:58:05.730Z,41.25
2018-07-26T10:58:45.496Z,41.35
2018-07-26T10:59:27.241Z,41.53
2018-07-26T11:00:08.754Z,41.58
2018-07-26T11:00:48.877Z,41.85
2018-07-26T11:01:29.920Z,42.04
2018-07-26T11:02:10.681Z,42.09
2018-07-26T11:02:51.172Z,42.04
2018-07-26T11:03:32.730Z,41.96
2018-07-26T11:04:14.382Z,41.88
2018-07-26T11:04:54.669Z,41.82
2018-07-26T11:05:36.009Z,41.8
2018-07-26T11:06:16.466Z,41.83
2018-07-26T11:06:57.857Z,41.83
2018-07-26T11:07:39.334Z,41.74
2018-07-26T11:08:19.825Z,41.77
2018-07-26T11:09:00.529Z,41.8
2018-07-26T11:11:31.816Z,41.76
2018-07-26T11:12:16.039Z,41.54
2018-07-26T11:12:56.062Z,41.57
2018-07-26T11:13:36.518Z,41.55
2018-07-26T11:14:17.203Z,41.55
2018-07-26T11:14:57.807Z,41.44
2018-07-26T11:15:38.419Z,41.23
2018-07-26T11:17:37.481Z,40.91
2018-07-26T11:18:21.672Z,40.88
2018-07-26T11:19:02.799Z,40.86
2018-07-26T11:19:43.249Z,41
2018-07-26T11:20:23.762Z,41.04
2018-07-26T11:21:10.698Z,41.29
2018-07-26T11:21:50.911Z,41.44
2018-07-26T11:33:11.850Z,41.57
2018-07-26T11:33:52.191Z,41.32
2018-07-26T11:37:05.564Z,41.05
2018-07-26T11:38:01.474Z,40.98
2018-07-26T11:38:42.285Z,40.79
2018-07-26T11:39:25.548Z,40.82
2018-07-26T11:40:06.018Z,40.86
2018-07-26T11:40:46.855Z,40.92
2018-07-26T11:41:28.764Z,40.94
2018-07-26T11:42:08.691Z,41.04
2018-07-26T11:42:52.133Z,41.07
2018-07-26T11:43:36.793Z,41.13
2018-07-26T11:44:18.117Z,41.28
2018-07-26T11:44:59.322Z,41.38
2018-07-26T11:45:39.951Z,41.38
2018-07-26T11:46:20.417Z,41.35
2018-07-26T11:48:37.244Z,41.02
2018-07-26T11:49:17.667Z,40.78
2018-07-26T11:49:58.041Z,40.73
2018-07-26T11:50:38.507Z,40.54
2018-07-26T11:51:19.047Z,40.31
2018-07-26T11:51:59.557Z,40.13
2018-07-26T11:52:40.456Z,39.99
2018-07-26T11:53:21.161Z,39.8
2018-07-26T11:54:01.918Z,39.69
2018-07-26T11:54:44.131Z,39.72
2018-07-26T11:55:25.941Z,39.69
2018-07-26T11:56:06.743Z,39.68
2018-07-26T11:56:49.353Z,39.69
2018-07-26T11:57:30.991Z,39.7
2018-07-26T12:05:44.335Z,40.34
2018-07-26T12:06:26.383Z,40.33
2018-07-26T12:07:07.390Z,40.39
2018-07-26T12:11:32.367Z,40.92
2018-07-26T12:12:13.834Z,40.97
2018-07-26T12:12:54.726Z,40.88
2018-07-26T12:13:35.211Z,40.8
2018-07-26T12:14:16.651Z,40.83
2018-07-26T12:14:57.250Z,40.88
2018-07-26T12:15:37.731Z,40.88
2018-07-26T12:16:18.204Z,40.98
2018-07-26T12:16:58.878Z,40.95
2018-07-26T12:17:39.685Z,40.91
2018-07-26T12:18:20.776Z,40.8
2018-07-26T12:19:01.986Z,40.63
2018-07-26T12:19:42.205Z,40.57
2018-07-26T12:20:22.683Z,40.57
2018-07-26T12:21:03.459Z,40.58
2018-07-26T12:21:44.234Z,40.67
2018-07-26T12:22:24.807Z,40.75
2018-07-26T12:23:05.275Z,40.86
2018-07-26T12:23:45.758Z,40.9
2018-07-26T12:24:26.168Z,40.98
2018-07-26T12:25:06.742Z,41.04
2018-07-26T12:25:47.787Z,40.94
2018-07-26T12:26:28.419Z,40.94
2018-07-26T12:27:11.021Z,40.94
2018-07-26T12:27:51.313Z,41.09
2018-07-26T12:28:33.462Z,41.23
2018-07-26T12:29:13.788Z,41.17
2018-07-26T12:29:54.251Z,40.86
2018-07-26T12:30:34.699Z,40.63
2018-07-26T12:31:16.573Z,40.54
2018-07-26T12:31:57.482Z,40.42
2018-07-26T12:32:37.702Z,40.41
2018-07-26T12:33:19.098Z,39.97
2018-07-26T12:37:10.219Z,39.24
2018-07-26T12:37:51.841Z,39.29
2018-07-26T12:38:33.065Z,39.34
2018-07-26T12:39:13.368Z,39.48
2018-07-26T12:39:53.858Z,39.54
2018-07-26T12:40:34.371Z,39.47
2018-07-26T12:41:14.854Z,39.29
2018-07-26T12:41:55.294Z,39.31
2018-07-26T12:42:35.716Z,39.2
2018-07-26T12:43:16.151Z,39.28
2018-07-26T12:43:57.246Z,39.51
2018-07-26T12:44:42.253Z,39.72
2018-07-26T12:45:21.231Z,39.9
2018-07-26T12:46:02.225Z,40.11
2018-07-26T12:46:42.926Z,40.29
2018-07-26T12:47:23.697Z,40.29
2018-07-26T12:48:05.321Z,40.36
2018-07-26T12:48:45.443Z,40.38
2018-07-26T12:49:26.546Z,40.29
2018-07-26T12:50:08.937Z,40.11
2018-07-26T12:50:48.690Z,40.03
2018-07-26T12:51:30.800Z,40.03
2018-07-26T12:52:10.667Z,40.22
2018-07-26T12:52:51.959Z,40.34
2018-07-26T12:53:32.709Z,40.53
2018-07-26T12:54:15.306Z,40.38
2018-07-26T12:54:55.852Z,40.45
2018-07-26T12:55:37.492Z,40.46
2018-07-26T12:56:17.639Z,40.46
2018-07-26T12:57:03.035Z,40.53
2018-07-26T12:57:44.993Z,40.57
2018-07-26T12:58:25.506Z,40.49
2018-07-26T12:59:06.364Z,40.38
2018-07-26T12:59:50.892Z,40.42
2018-07-26T13:00:32.802Z,40.49
2018-07-26T13:01:13.962Z,40.58
2018-07-26T13:01:55.296Z,40.6
2018-07-26T13:02:36.373Z,40.76
2018-07-26T13:03:16.493Z,40.92
2018-07-26T13:03:58.546Z,40.91
2018-07-26T13:04:39.366Z,40.97
2018-07-26T13:05:19.860Z,41.04
2018-07-26T13:06:02.309Z,41.02
2018-07-26T13:06:43.421Z,40.95
2018-07-26T13:07:23.176Z,41.04
2018-07-26T13:08:49.308Z,41.01
2018-07-26T13:09:29.491Z,41.14
2018-07-26T13:10:11.366Z,41.33
2018-07-26T13:10:52.298Z,41.41
2018-07-26T13:11:32.842Z,41.6
2018-07-26T13:12:13.416Z,41.62
2018-07-26T13:12:53.843Z,41.85
2018-07-26T13:13:35.285Z,41.86
2018-07-26T13:14:15.257Z,41.89
2018-07-26T13:14:55.917Z,41.97
2018-07-26T13:15:38.899Z,42.19
2018-07-26T13:17:33.478Z,42.26
2018-07-26T13:18:14.332Z,42.23
2018-07-26T13:18:55.221Z,42.27
2018-07-26T13:19:35.644Z,42.27
2018-07-26T13:20:17.415Z,42.27
2018-07-26T13:21:00.028Z,42.14
2018-07-26T13:21:40.567Z,42.01
2018-07-26T13:35:03.981Z,41.39
2018-07-26T13:39:05.727Z,42.48
2018-07-26T13:39:50.348Z,42.49
2018-07-26T13:40:38.164Z,42.5
2018-07-26T13:41:19.288Z,42.46
2018-07-26T13:41:59.907Z,42.31
2018-07-26T13:42:41.598Z,42.04
2018-07-26T13:43:22.465Z,41.85
2018-07-26T13:44:04.307Z,41.85
2018-07-26T13:44:44.189Z,41.54
2018-07-26T13:45:24.633Z,41.46
2018-07-26T13:46:05.405Z,41.44
2018-07-26T13:46:46.345Z,41.33
2018-07-26T13:47:28.444Z,41.19
2018-07-26T13:48:08.918Z,40.98
2018-07-26T13:48:50.471Z,40.83
2018-07-26T13:49:34.939Z,40.68
2018-07-26T13:50:15.022Z,40.54
2018-07-26T13:50:56.902Z,40.36
2018-07-26T13:51:37.255Z,40.24
2018-07-26T13:52:18.160Z,40.09
2018-07-26T13:52:59.570Z,40
2018-07-26T13:53:56.178Z,39.82
2018-07-26T13:54:38.619Z,39.76
2018-07-26T13:55:19.385Z,39.72
2018-07-26T13:56:00.121Z,39.75
2018-07-26T13:56:42.461Z,39.69
2018-07-26T14:00:12.076Z,39.56
2018-07-26T14:00:52.620Z,39.73
2018-07-26T14:01:33.709Z,39.82
2018-07-26T14:02:15.702Z,40
2018-07-26T14:02:56.907Z,40.09
2018-07-26T14:03:37.899Z,40.21
2018-07-26T14:04:18.230Z,40.31
2018-07-26T14:04:58.932Z,40.34
2018-07-26T14:05:39.453Z,40.38
2018-07-26T14:06:20.130Z,40.25
2018-07-26T14:07:01.271Z,40.34
2018-07-26T14:07:41.535Z,40.33
2018-07-26T14:08:22.069Z,40.31
2018-07-26T14:09:02.791Z,40.29
2018-07-26T14:09:43.319Z,40.31
2018-07-26T14:10:25.699Z,40.44
2018-07-26T14:11:09.831Z,40.39
2018-07-26T14:11:52.253Z,40.36
2018-07-26T14:12:32.702Z,40.51
2018-07-26T14:13:13.163Z,40.53
2018-07-26T14:13:57.089Z,40.51
2018-07-26T14:14:37.476Z,40.68
2018-07-26T14:15:17.952Z,40.67
2018-07-26T14:15:58.778Z,40.85
2018-07-26T14:16:39.694Z,40.9
2018-07-26T14:22:29.769Z,41.53
2018-07-26T14:23:23.856Z,41.93
2018-07-26T14:24:04.394Z,42.05
2018-07-26T14:26:17.878Z,42.58
2018-07-26T14:26:59.959Z,42.62
2018-07-26T14:33:03.276Z,42.94
2018-07-26T14:33:44.283Z,42.54
2018-07-26T14:34:27.454Z,42.26
2018-07-26T14:35:08.395Z,42.2
2018-07-26T14:38:09.436Z,41.97
2018-07-26T14:38:50.036Z,41.76
2018-07-26T14:39:30.937Z,41.5
2018-07-26T14:40:11.388Z,41.19
2018-07-26T14:40:51.764Z,40.97
2018-07-26T14:41:32.538Z,40.75
2018-07-26T14:42:13.185Z,40.61
2018-07-26T14:42:54.442Z,40.61
2018-07-26T14:43:36.948Z,40.42
2018-07-26T14:44:17.629Z,40.33
2018-07-26T14:44:58.189Z,40.28
2018-07-26T14:45:39.129Z,40.22
2018-07-26T14:46:19.513Z,40.16
2018-07-26T14:47:00.715Z,40
2018-07-26T14:47:41.953Z,39.94
2018-07-26T14:48:22.300Z,39.78
2018-07-26T14:49:02.774Z,39.69
2018-07-26T14:49:43.204Z,39.56
2018-07-26T14:50:23.690Z,39.38
2018-07-26T14:51:04.300Z,39.31
2018-07-26T14:51:44.647Z,39.31
2018-07-26T14:52:25.081Z,39.09
2018-07-26T14:53:05.561Z,39
2018-07-26T14:53:46.147Z,38.71
2018-07-26T14:54:26.881Z,38.67
2018-07-26T14:55:08.882Z,38.38
2018-07-26T14:55:48.817Z,38.37
2018-07-26T14:56:29.473Z,38.31
2018-07-26T14:57:10.439Z,38.4
2018-07-26T14:57:53.381Z,38.56
2018-07-26T14:58:35.018Z,38.56
2018-07-26T15:02:08.235Z,39.01
2018-07-26T15:02:47.852Z,39.1
2018-07-26T15:03:28.738Z,39.13
2018-07-26T15:04:08.997Z,39.36
2018-07-26T15:04:49.745Z,39.36
2018-07-26T15:05:30.319Z,39.34
2018-07-26T15:06:11.076Z,39.41
2018-07-26T15:06:51.884Z,39.31
2018-07-26T15:07:32.725Z,39.34
2018-07-26T15:10:07.566Z,39.32
2018-07-26T15:10:48.103Z,39.35
2018-07-26T15:11:28.618Z,39.32
2018-07-26T15:12:09.739Z,39.28
2018-07-26T15:12:49.942Z,39.14
2018-07-26T15:13:30.420Z,39.09
2018-07-26T15:14:10.974Z,38.95
2018-07-26T15:14:53.223Z,38.72
2018-07-26T15:15:34.062Z,38.6
2018-07-26T15:16:15.557Z,38.45
2018-07-26T15:16:55.988Z,38.26
2018-07-26T15:17:36.964Z,38.16
2018-07-26T15:18:19.581Z,38.09
2018-07-26T15:19:00.053Z,38.07
2018-07-26T15:19:40.897Z,38.09
2018-07-26T15:20:21.554Z,38.04
2018-07-26T15:21:02.050Z,38.03
2018-07-26T15:21:43.969Z,38.04
2018-07-26T15:22:24.959Z,38.06
2018-07-26T15:24:12.957Z,37.82
2018-07-26T15:24:54.947Z,37.81
2018-07-26T15:25:35.328Z,37.8
2018-07-26T15:26:16.320Z,37.84
2018-07-26T15:26:57.322Z,37.72
2018-07-26T15:27:38.159Z,37.75
2018-07-26T15:28:19.420Z,37.77
2018-07-26T15:29:02.268Z,37.81
2018-07-26T15:29:42.880Z,37.81
2018-07-26T15:30:24.269Z,37.82
2018-07-26T15:31:03.899Z,37.78
2018-07-26T15:31:44.406Z,37.75
2018-07-26T15:32:29.951Z,37.7
2018-07-26T15:33:11.716Z,37.69
2018-07-26T15:33:52.456Z,37.77
2018-07-26T15:34:33.479Z,37.7
2018-07-26T15:35:16.510Z,37.63
2018-07-26T15:35:58.260Z,37.63
2018-07-26T15:36:38.650Z,37.62
2018-07-26T15:37:19.068Z,37.56
2018-07-26T15:38:00.864Z,37.53
2018-07-26T15:46:01.735Z,37.5
2018-07-26T15:56:18.679Z,37.2
2018-07-26T15:57:02.631Z,37.08
2018-07-26T15:57:44.487Z,36.79
2018-07-26T15:58:24.816Z,36.74
2018-07-26T15:59:05.783Z,36.68
2018-07-26T15:59:47.051Z,36.71
2018-07-26T16:00:28.861Z,36.59
2018-07-26T16:01:09.755Z,36.65
2018-07-26T16:01:50.417Z,36.55
2018-07-26T16:02:32.188Z,36.57
2018-07-26T16:03:12.648Z,36.49
2018-07-26T16:03:53.426Z,36.43
2018-07-26T16:04:34.008Z,36.43
2018-07-26T16:05:15.047Z,36.4
2018-07-26T16:05:55.496Z,36.33
2018-07-26T16:06:37.794Z,36.34
2018-07-26T16:07:19.008Z,36.37
2018-07-26T16:43:42.136Z,34.26
2018-07-26T16:45:32.345Z,34.48
2018-07-26T16:47:49.281Z,34.46
2018-07-26T16:48:28.803Z,34.46
2018-07-26T16:49:09.211Z,34.46
2018-07-26T16:50:57.016Z,34.55
2018-07-26T16:51:37.532Z,34.53
2018-07-26T16:53:50.578Z,34.71
2018-07-26T16:57:53.582Z,34.94
2018-07-26T17:01:41.129Z,35.17
2018-07-26T17:05:03.492Z,35.32
2018-07-26T17:06:52.289Z,35.49
2018-07-26T17:13:20.952Z,35.71
2018-07-26T19:14:37.393Z,33.45
2018-07-26T19:15:28.495Z,33.59
2018-07-26T19:16:21.792Z,33.5
2018-07-26T19:17:13.721Z,33.43
2018-07-26T19:19:12.853Z,33.43
2018-07-26T19:20:07.482Z,33.4
2018-07-26T19:21:09.688Z,33.41
2018-07-26T19:42:59.413Z,32.72
2018-07-26T19:43:50.751Z,32.69
2018-07-26T19:44:41.578Z,32.71
2018-07-26T19:45:34.877Z,32.63
2018-07-26T19:48:03.366Z,32.63
2018-07-26T19:51:56.178Z,32.41
2018-07-26T19:52:37.432Z,32.41
2018-07-26T19:53:19.536Z,32.32
2018-07-26T19:54:00.113Z,32.25
2018-07-26T19:54:41.489Z,32.22
2018-07-26T19:55:21.912Z,32.07
2018-07-26T19:56:02.167Z,32.07
2018-07-26T19:56:42.601Z,31.98
2018-07-26T19:57:23.218Z,31.84
2018-07-26T19:58:03.871Z,31.72
2018-07-26T19:58:44.463Z,31.71
2018-07-26T19:59:24.854Z,31.64
2018-07-26T20:00:05.268Z,31.56
2018-07-26T20:00:45.962Z,31.49
2018-07-26T20:01:26.382Z,31.42
2018-07-26T20:02:06.770Z,31.52
2018-07-26T20:02:47.264Z,31.4
2018-07-26T20:03:27.948Z,31.46
2018-07-26T20:04:08.392Z,31.41
